Tampa, Florida
Current Conditions -  °F | °C
As of 10:53 PM on Monday 22 Dec 2014 (Local Time) from KTPA Reporting Station
Scattered Clouds Scattered Clouds  
Wind Chill: 71°   Ceiling: Unl
Heat Index: 71°   Visibility: 9mi
Dew Point: 68°   Wind: 6mph
Humidity: 90%   Direction: 150°SSE
Pressure: 29.95"   Gusts: NA
Location:  27.95°N, 82.46°W
Report Text: KTPA 230353Z 15005KT 9SM FEW007 SCT280 22/20 A2995 RMK AO2 SLP141 T02170200
Loading
Personal Weather Stations






























Interactive Weather Map New forecast layout! Learn more

10-Day Weather Forecast

Advertisements
Track Severe Weather on mobile